createdAt,value
2016-12-12T00:00:05.326Z,732.98
2016-12-12T00:01:05.311Z,732.77
2016-12-12T00:02:05.282Z,732.72
2016-12-12T00:03:05.265Z,732.73
2016-12-12T00:04:05.237Z,732.86
2016-12-12T00:05:05.215Z,732.83
2016-12-12T00:06:05.200Z,732.84
2016-12-12T00:07:05.172Z,732.75
2016-12-12T00:08:05.150Z,732.72
2016-12-12T00:09:05.134Z,732.79
2016-12-12T00:10:05.112Z,732.79
2016-12-12T00:11:05.083Z,732.75
2016-12-12T00:12:05.063Z,732.74
2016-12-12T00:13:05.044Z,732.43
2016-12-12T00:14:05.015Z,732.57
2016-12-12T00:15:04.999Z,732.63
2016-12-12T00:16:04.976Z,732.66
2016-12-12T00:17:04.947Z,732.77
2016-12-12T00:18:04.932Z,732.89
2016-12-12T00:19:04.908Z,732.6
2016-12-12T00:20:04.889Z,732.71
2016-12-12T00:21:04.855Z,732.75
2016-12-12T00:22:04.832Z,732.82
2016-12-12T00:23:04.809Z,732.76
2016-12-12T00:24:04.785Z,732.65
2016-12-12T00:25:04.762Z,732.84
2016-12-12T00:26:04.747Z,732.63
2016-12-12T00:27:04.721Z,732.64
2016-12-12T00:28:04.692Z,732.57
2016-12-12T00:29:04.678Z,732.74
2016-12-12T00:30:04.651Z,732.72
2016-12-12T00:31:04.627Z,732.7
2016-12-12T00:32:04.598Z,732.68
2016-12-12T00:33:04.575Z,732.6
2016-12-12T00:34:04.551Z,732.57
2016-12-12T00:35:04.527Z,732.66
2016-12-12T00:36:04.504Z,732.53
2016-12-12T00:37:04.480Z,732.72
2016-12-12T00:38:04.456Z,732.58
2016-12-12T00:39:04.433Z,732.82
2016-12-12T00:40:04.415Z,732.54
2016-12-12T00:41:04.394Z,732.57
2016-12-12T00:42:04.362Z,732.59
2016-12-12T00:43:04.339Z,732.37
2016-12-12T00:44:04.316Z,732.72
2016-12-12T00:45:04.294Z,732.44
2016-12-12T00:46:04.270Z,732.6
2016-12-12T00:47:04.253Z,732.8
2016-12-12T00:48:04.230Z,732.7
2016-12-12T00:49:04.205Z,732.76
2016-12-12T00:50:04.183Z,732.61
2016-12-12T00:51:04.152Z,732.89
2016-12-12T00:52:04.136Z,732.49
2016-12-12T00:53:04.106Z,732.75
2016-12-12T00:54:04.090Z,732.93
2016-12-12T00:55:04.066Z,732.68
2016-12-12T00:56:04.037Z,732.68
2016-12-12T00:57:04.013Z,732.75
2016-12-12T00:58:03.991Z,732.61
2016-12-12T00:59:03.968Z,732.37
2016-12-12T01:00:03.944Z,732.6
2016-12-12T01:01:03.922Z,732.48
2016-12-12T01:02:03.899Z,732.61
2016-12-12T01:03:03.876Z,732.61
2016-12-12T01:04:03.853Z,732.37
2016-12-12T01:05:03.830Z,732.72
2016-12-12T01:06:03.807Z,732.32
2016-12-12T01:07:03.785Z,732.4
2016-12-12T01:08:03.761Z,732.23
2016-12-12T01:09:03.738Z,732.27
2016-12-12T01:10:03.715Z,731.99
2016-12-12T01:11:03.691Z,732.17
2016-12-12T01:12:03.668Z,732.21
2016-12-12T01:13:03.651Z,732.09
2016-12-12T01:14:03.629Z,732.02
2016-12-12T01:15:03.605Z,732.32
2016-12-12T01:16:03.580Z,731.71
2016-12-12T01:17:03.551Z,732.17
2016-12-12T01:18:03.533Z,732.13
2016-12-12T01:19:03.509Z,732.29
2016-12-12T01:20:03.479Z,732.3
2016-12-12T01:21:03.456Z,732.2
2016-12-12T01:22:03.440Z,732.3
2016-12-12T01:23:03.409Z,732.17
2016-12-12T01:24:03.392Z,732.42
2016-12-12T01:25:03.369Z,732.45
2016-12-12T01:26:03.342Z,732.28
2016-12-12T01:27:03.315Z,732.26
2016-12-12T01:28:03.300Z,732.44
2016-12-12T01:29:03.269Z,732.52
2016-12-12T01:30:03.253Z,732.61
2016-12-12T01:31:03.222Z,732.5
2016-12-12T01:32:03.206Z,732.38
2016-12-12T01:33:03.182Z,732.33
2016-12-12T01:34:03.152Z,732.33
2016-12-12T01:35:03.130Z,732.6
2016-12-12T01:36:03.116Z,732.61
2016-12-12T01:37:03.090Z,732.63
2016-12-12T01:38:03.060Z,732.71
2016-12-12T01:39:03.036Z,732.7
2016-12-12T01:40:03.020Z,732.8
2016-12-12T01:41:02.997Z,732.85
2016-12-12T01:42:02.975Z,732.83
2016-12-12T01:43:02.952Z,732.75
2016-12-12T01:44:02.922Z,732.79
2016-12-12T01:45:02.899Z,732.84
2016-12-12T01:46:02.882Z,732.88
2016-12-12T01:47:02.854Z,732.92
2016-12-12T01:48:02.830Z,732.87
2016-12-12T01:49:02.813Z,732.85
2016-12-12T01:50:02.793Z,732.73
2016-12-12T01:51:02.763Z,732.84
2016-12-12T01:52:02.740Z,732.78
2016-12-12T01:53:02.726Z,732.78
2016-12-12T01:54:02.696Z,732.85
2016-12-12T01:55:02.672Z,732.92
2016-12-12T01:56:02.650Z,732.7
2016-12-12T01:57:02.628Z,732.85
2016-12-12T01:58:02.613Z,732.94
2016-12-12T01:59:02.589Z,732.81
2016-12-12T02:00:02.560Z,732.71
2016-12-12T02:01:02.539Z,732.81
2016-12-12T02:02:02.522Z,732.72
2016-12-12T02:03:02.493Z,732.74
2016-12-12T02:04:02.471Z,732.58
2016-12-12T02:05:02.456Z,732.65
2016-12-12T02:06:02.426Z,732.71
2016-12-12T02:07:02.411Z,732.48
2016-12-12T02:08:02.382Z,732.5
2016-12-12T02:09:02.360Z,732.53
2016-12-12T02:10:02.336Z,732.57
2016-12-12T02:11:02.314Z,732.6
2016-12-12T02:12:02.292Z,732.43
2016-12-12T02:13:02.268Z,732.34
2016-12-12T02:14:02.246Z,732.29
2016-12-12T02:15:02.231Z,732.2
2016-12-12T02:16:02.208Z,732.34
2016-12-12T02:17:02.178Z,732.28
2016-12-12T02:18:02.162Z,732.33
2016-12-12T02:19:02.139Z,732.3
2016-12-12T02:20:02.117Z,732.24
2016-12-12T02:21:02.093Z,732.24
2016-12-12T02:22:02.065Z,732.4
2016-12-12T02:23:02.048Z,732.32
2016-12-12T02:24:02.036Z,732.38
2016-12-12T02:25:02.003Z,732.38
2016-12-12T02:26:01.973Z,732.42
2016-12-12T02:27:01.950Z,732.42
2016-12-12T02:28:01.933Z,732.46
2016-12-12T02:29:01.911Z,732.34
2016-12-12T02:30:01.881Z,732.36
2016-12-12T02:31:01.865Z,732.33
2016-12-12T02:32:01.834Z,732.31
2016-12-12T02:33:01.812Z,732.3
2016-12-12T02:34:01.797Z,732.32
2016-12-12T02:35:01.765Z,732.27
2016-12-12T02:36:01.743Z,732.29
2016-12-12T02:37:01.720Z,732.29
2016-12-12T02:38:01.698Z,732.03
2016-12-12T02:39:01.681Z,732.36
2016-12-12T02:40:01.651Z,732.38
2016-12-12T02:41:01.628Z,732.22
2016-12-12T02:42:01.613Z,732.3
2016-12-12T02:43:01.582Z,732.23
2016-12-12T02:44:01.559Z,732.25
2016-12-12T02:45:01.543Z,732.35
2016-12-12T02:46:01.521Z,732.29
2016-12-12T02:47:01.496Z,732.32
2016-12-12T02:48:01.467Z,732.29
2016-12-12T02:49:01.451Z,732.43
2016-12-12T02:50:01.421Z,732.37
2016-12-12T02:51:01.403Z,732.44
2016-12-12T02:52:01.375Z,732.48
2016-12-12T02:53:01.352Z,732.51
2016-12-12T02:54:01.335Z,732.51
2016-12-12T02:55:01.311Z,732.49
2016-12-12T02:56:01.288Z,732.51
2016-12-12T02:57:01.273Z,732.51
2016-12-12T02:58:01.242Z,732.43
2016-12-12T02:59:01.220Z,732.53
2016-12-12T03:00:01.190Z,732.56
2016-12-12T03:01:01.167Z,732.4
2016-12-12T03:02:01.144Z,732.52
2016-12-12T03:03:01.121Z,732.38
2016-12-12T03:04:01.105Z,732.5
2016-12-12T03:05:01.074Z,732.48
2016-12-12T03:06:01.051Z,732.46
2016-12-12T03:07:01.031Z,732.52
2016-12-12T03:08:01.005Z,732.48
2016-12-12T03:09:00.982Z,732.52
2016-12-12T03:10:00.966Z,732.49
2016-12-12T03:11:00.943Z,732.5
2016-12-12T03:12:00.921Z,732.32
2016-12-12T03:13:00.897Z,732.58
2016-12-12T03:14:00.870Z,732.33
2016-12-12T03:15:00.852Z,732.44
2016-12-12T03:16:00.831Z,732.43
2016-12-12T03:17:00.808Z,732.56
2016-12-12T03:18:00.779Z,732.34
2016-12-12T03:19:00.957Z,732.41
2016-12-12T03:20:00.739Z,732.33
2016-12-12T03:21:00.717Z,732.51
2016-12-12T03:22:00.712Z,732.39
2016-12-12T03:23:00.663Z,732.57
2016-12-12T03:24:00.641Z,732.54
2016-12-12T03:25:00.624Z,732.39
2016-12-12T03:26:00.602Z,732.41
2016-12-12T03:27:00.579Z,732.08
2016-12-12T03:28:00.549Z,732.22
2016-12-12T03:29:00.526Z,732.3
2016-12-12T03:30:00.502Z,732.3
2016-12-12T03:31:00.490Z,732.33
2016-12-12T03:32:00.456Z,732.13
2016-12-12T03:33:00.442Z,732.34
2016-12-12T03:34:00.409Z,732.35
2016-12-12T03:35:00.386Z,732.38
2016-12-12T03:36:00.363Z,732.38
2016-12-12T03:37:00.345Z,732.41
2016-12-12T03:38:00.517Z,732.42
2016-12-12T03:39:00.300Z,732.4
2016-12-12T03:40:00.271Z,732.42
2016-12-12T03:41:00.253Z,732.4
2016-12-12T03:42:00.231Z,732.53
2016-12-12T03:43:00.210Z,732.4
2016-12-12T03:44:00.180Z,732.47
2016-12-12T03:45:00.163Z,732.51
2016-12-12T03:46:00.135Z,732.53
2016-12-12T03:47:00.119Z,732.53
2016-12-12T03:48:00.088Z,732.42
2016-12-12T03:49:00.072Z,732.5
2016-12-12T03:50:00.043Z,732.41
2016-12-12T03:51:00.021Z,732.47
2016-12-12T03:52:00.005Z,732.49
2016-12-12T03:52:59.983Z,732.32
2016-12-12T03:53:59.961Z,732.42
2016-12-12T03:54:59.931Z,732.43
2016-12-12T03:55:59.916Z,732.55
2016-12-12T03:56:59.885Z,732.5
2016-12-12T03:57:59.863Z,732.44
2016-12-12T03:58:59.839Z,732.5
2016-12-12T03:59:59.817Z,732.43
2016-12-12T04:00:59.795Z,732.31
2016-12-12T04:01:59.780Z,732.57
2016-12-12T04:02:59.749Z,732.64
2016-12-12T04:03:59.735Z,732.67
2016-12-12T04:04:59.704Z,732.55
2016-12-12T04:05:59.682Z,732.39
2016-12-12T04:06:59.665Z,732.44
2016-12-12T04:07:59.644Z,732.48
2016-12-12T04:08:59.614Z,732.53
2016-12-12T04:09:59.591Z,732.35
2016-12-12T04:10:59.569Z,732.37
2016-12-12T04:11:59.547Z,732.16
2016-12-12T04:12:59.524Z,732.22
2016-12-12T04:13:59.507Z,732.45
2016-12-12T04:14:59.485Z,732.49
2016-12-12T04:15:59.463Z,732.41
2016-12-12T04:16:59.432Z,732.44
2016-12-12T04:17:59.415Z,732.54
2016-12-12T04:18:59.393Z,732.4
2016-12-12T04:19:59.363Z,732.26
2016-12-12T04:20:59.346Z,732.32
2016-12-12T04:21:59.324Z,732.37
2016-12-12T04:22:59.300Z,732.4
2016-12-12T04:23:59.277Z,732.54
2016-12-12T04:24:59.247Z,732.58
2016-12-12T04:25:59.224Z,732.59
2016-12-12T04:26:59.201Z,732.6
2016-12-12T04:27:59.178Z,732.57
2016-12-12T04:28:59.156Z,732.69
2016-12-12T04:29:59.131Z,732.65
2016-12-12T04:30:59.115Z,732.71
2016-12-12T04:31:59.085Z,732.69
2016-12-12T04:32:59.064Z,732.71
2016-12-12T04:33:59.040Z,732.69
2016-12-12T04:34:59.017Z,732.63
2016-12-12T04:35:58.994Z,732.7
2016-12-12T04:36:58.978Z,732.7
2016-12-12T04:37:58.955Z,732.66
2016-12-12T04:38:58.927Z,732.62
2016-12-12T04:39:58.904Z,732.79
2016-12-12T04:40:59.091Z,732.74
2016-12-12T04:41:58.860Z,732.77
2016-12-12T04:42:58.836Z,732.72
2016-12-12T04:43:58.814Z,732.7
2016-12-12T04:44:58.799Z,732.78
2016-12-12T04:45:58.770Z,732.83
2016-12-12T04:46:58.747Z,732.79
2016-12-12T04:47:58.725Z,732.74
2016-12-12T04:48:58.703Z,732.8
2016-12-12T04:49:58.682Z,732.75
2016-12-12T04:50:58.666Z,732.77
2016-12-12T04:51:58.638Z,732.76
2016-12-12T04:52:58.616Z,732.81
2016-12-12T04:53:58.602Z,732.83
2016-12-12T04:54:58.579Z,732.88
2016-12-12T04:55:58.550Z,732.79
2016-12-12T04:56:58.528Z,732.78
2016-12-12T04:57:58.512Z,732.85
2016-12-12T04:58:58.491Z,732.87
2016-12-12T04:59:58.469Z,732.87
2016-12-12T05:00:58.446Z,732.87
2016-12-12T05:01:58.424Z,732.81
2016-12-12T05:02:58.404Z,732.83
2016-12-12T05:03:58.381Z,732.83
2016-12-12T05:04:58.352Z,732.8
2016-12-12T05:05:58.339Z,732.78
2016-12-12T05:06:58.319Z,732.83
2016-12-12T05:07:58.295Z,732.86
2016-12-12T05:08:58.266Z,732.84
2016-12-12T05:09:58.245Z,732.8
2016-12-12T05:10:58.223Z,732.85
2016-12-12T05:11:58.208Z,732.83
2016-12-12T05:12:58.187Z,732.86
2016-12-12T05:13:58.166Z,732.82
2016-12-12T05:14:58.144Z,732.83
2016-12-12T05:15:58.115Z,732.82
2016-12-12T05:16:58.093Z,732.82
2016-12-12T05:17:58.071Z,732.88
2016-12-12T05:18:58.050Z,732.99
2016-12-12T05:19:58.028Z,732.89
2016-12-12T05:20:58.007Z,732.89
2016-12-12T05:21:57.991Z,732.95
2016-12-12T05:22:57.968Z,733.03
2016-12-12T05:23:57.951Z,733.05
2016-12-12T05:24:57.925Z,733.03
2016-12-12T05:25:57.896Z,732.98
2016-12-12T05:26:57.873Z,733.02
2016-12-12T05:27:57.851Z,733.09
2016-12-12T05:28:57.836Z,733.03
2016-12-12T05:29:57.807Z,733.04
2016-12-12T05:30:57.792Z,733.07
2016-12-12T05:31:57.768Z,733.02
2016-12-12T05:32:57.747Z,733.02
2016-12-12T05:33:57.718Z,733.01
2016-12-12T05:34:57.703Z,733.03
2016-12-12T05:35:57.680Z,733.04
2016-12-12T05:36:57.652Z,733
2016-12-12T05:37:57.629Z,733.02
2016-12-12T05:38:57.613Z,733.02
2016-12-12T05:39:57.591Z,733.08
2016-12-12T05:40:57.570Z,733.03
2016-12-12T05:41:57.540Z,733.05
2016-12-12T05:42:57.524Z,733.12
2016-12-12T05:43:57.496Z,733.03
2016-12-12T05:44:57.480Z,733.05
2016-12-12T05:45:57.458Z,733.1
2016-12-12T05:46:57.428Z,733.05
2016-12-12T05:47:57.406Z,733.09
2016-12-12T05:48:57.390Z,733.04
2016-12-12T05:49:57.368Z,732.97
2016-12-12T05:50:57.345Z,732.97
2016-12-12T05:51:57.315Z,733.07
2016-12-12T05:52:57.299Z,733.12
2016-12-12T05:53:57.271Z,733.08
2016-12-12T05:54:57.253Z,733.01
2016-12-12T05:55:57.223Z,733.12
2016-12-12T05:56:57.207Z,733.13
2016-12-12T05:57:57.178Z,733.1
2016-12-12T05:58:57.155Z,733.14
2016-12-12T05:59:57.137Z,733.09
2016-12-12T06:00:57.115Z,733.06
2016-12-12T06:01:57.094Z,733.16
2016-12-12T06:02:57.063Z,733.11
2016-12-12T06:03:57.047Z,733.15
2016-12-12T06:04:57.017Z,733.08
2016-12-12T06:05:57.001Z,732.98
2016-12-12T06:06:56.978Z,733.03
2016-12-12T06:07:56.955Z,733.1
2016-12-12T06:08:56.925Z,733.01
2016-12-12T06:09:56.902Z,732.93
2016-12-12T06:10:56.878Z,732.95
2016-12-12T06:11:56.862Z,733.02
2016-12-12T06:12:56.833Z,733.11
2016-12-12T06:13:56.809Z,733.09
2016-12-12T06:14:56.793Z,733.15
2016-12-12T06:15:56.770Z,733.15
2016-12-12T06:16:56.740Z,733.07
2016-12-12T06:17:56.723Z,733.07
2016-12-12T06:18:56.700Z,733.14
2016-12-12T06:19:56.677Z,733.13
2016-12-12T06:20:56.648Z,733.09
2016-12-12T06:21:56.624Z,733.15
2016-12-12T06:22:56.609Z,733.06
2016-12-12T06:23:56.585Z,733.12
2016-12-12T06:24:56.563Z,733.17
2016-12-12T06:25:56.541Z,733.31
2016-12-12T06:26:56.518Z,733.25
2016-12-12T06:27:56.495Z,733.22
2016-12-12T06:28:56.465Z,733.28
2016-12-12T06:29:56.443Z,733.24
2016-12-12T06:30:56.428Z,733.24
2016-12-12T06:31:56.398Z,733.2
2016-12-12T06:32:56.374Z,733.07
2016-12-12T06:33:56.359Z,733.34
2016-12-12T06:34:56.335Z,733.27
2016-12-12T06:35:56.305Z,733.29
2016-12-12T06:36:56.283Z,733.21
2016-12-12T06:37:56.260Z,733.35
2016-12-12T06:38:56.237Z,733.28
2016-12-12T06:39:56.220Z,733.37
2016-12-12T06:40:56.198Z,733.37
2016-12-12T06:41:56.175Z,733.36
2016-12-12T06:42:56.152Z,733.26
2016-12-12T06:43:56.127Z,733.37
2016-12-12T06:44:56.098Z,733.34
2016-12-12T06:45:56.081Z,733.41
2016-12-12T06:46:56.058Z,733.41
2016-12-12T06:47:56.028Z,733.47
2016-12-12T06:48:56.013Z,733.51
2016-12-12T06:49:55.983Z,733.45
2016-12-12T06:50:55.967Z,733.4
2016-12-12T06:51:55.944Z,733.37
2016-12-12T06:52:55.914Z,733.28
2016-12-12T06:53:55.891Z,733.29
2016-12-12T06:54:55.873Z,733.33
2016-12-12T06:55:55.845Z,733.37
2016-12-12T06:56:55.821Z,733.23
2016-12-12T06:57:55.797Z,733.38
2016-12-12T06:58:55.780Z,733.42
2016-12-12T06:59:55.751Z,733.44
2016-12-12T07:00:55.728Z,733.45
2016-12-12T07:01:55.704Z,733.49
2016-12-12T07:02:55.683Z,733.52
2016-12-12T07:03:55.666Z,733.59
2016-12-12T07:04:55.636Z,733.6
2016-12-12T07:05:55.612Z,733.6
2016-12-12T07:06:55.590Z,733.63
2016-12-12T07:07:55.568Z,733.63
2016-12-12T07:08:55.551Z,733.68
2016-12-12T07:09:55.523Z,733.65
2016-12-12T07:10:55.515Z,733.66
2016-12-12T07:11:55.480Z,733.78
2016-12-12T07:12:55.455Z,733.76
2016-12-12T07:13:55.433Z,733.73
2016-12-12T07:14:55.411Z,733.75
2016-12-12T07:15:55.389Z,733.78
2016-12-12T07:16:55.373Z,733.79
2016-12-12T07:17:55.401Z,733.82
2016-12-12T07:18:55.323Z,733.87
2016-12-12T07:19:55.306Z,733.85
2016-12-12T07:20:55.286Z,733.83
2016-12-12T07:21:55.257Z,733.86
2016-12-12T07:22:55.235Z,733.84
2016-12-12T07:23:55.213Z,733.8
2016-12-12T07:24:55.199Z,733.76
2016-12-12T07:25:55.178Z,733.84
2016-12-12T07:26:55.148Z,733.79
2016-12-12T07:27:55.132Z,733.76
2016-12-12T07:28:55.105Z,733.78
2016-12-12T07:29:55.083Z,733.77
2016-12-12T07:30:55.067Z,733.81
2016-12-12T07:31:55.038Z,733.81
2016-12-12T07:32:55.018Z,733.74
2016-12-12T07:33:54.994Z,733.75
2016-12-12T07:34:54.972Z,733.79
2016-12-12T07:35:54.957Z,733.84
2016-12-12T07:36:54.935Z,733.88
2016-12-12T07:37:54.912Z,733.87
2016-12-12T07:38:54.882Z,733.85
2016-12-12T07:39:54.860Z,733.77
2016-12-12T07:40:54.845Z,733.79
2016-12-12T07:41:54.822Z,733.81
2016-12-12T07:42:54.793Z,733.81
2016-12-12T07:43:54.777Z,733.89
2016-12-12T07:44:54.748Z,733.88
2016-12-12T07:45:54.725Z,733.92
2016-12-12T07:46:54.710Z,733.97
2016-12-12T07:47:54.687Z,733.98
2016-12-12T07:48:54.659Z,733.98
2016-12-12T07:49:54.637Z,734.01
2016-12-12T07:50:54.618Z,734
2016-12-12T07:51:54.602Z,733.98
2016-12-12T07:52:54.571Z,733.99
2016-12-12T07:53:54.549Z,733.98
2016-12-12T07:54:54.534Z,733.93
2016-12-12T07:55:54.513Z,733.96
2016-12-12T07:56:54.491Z,734.01
2016-12-12T07:57:54.470Z,734.02
2016-12-12T07:58:54.447Z,734.04
2016-12-12T07:59:54.419Z,734.09
2016-12-12T08:00:54.405Z,734.04
2016-12-12T08:01:54.386Z,734.04
2016-12-12T08:02:54.362Z,734.03
2016-12-12T08:03:54.333Z,733.96
2016-12-12T08:04:54.311Z,734.03
2016-12-12T08:05:54.297Z,733.97
2016-12-12T08:06:54.275Z,734
2016-12-12T08:07:54.253Z,734.01
2016-12-12T08:08:54.232Z,734.09
2016-12-12T08:09:54.203Z,734.13
2016-12-12T08:10:54.180Z,734.11
2016-12-12T08:11:54.158Z,734.17
2016-12-12T08:12:54.144Z,734.17
2016-12-12T08:13:54.115Z,734.21
2016-12-12T08:14:54.100Z,734.21
2016-12-12T08:15:54.078Z,734.15
2016-12-12T08:16:54.050Z,734.21
2016-12-12T08:17:54.028Z,734.16
2016-12-12T08:18:54.014Z,734.29
2016-12-12T08:19:53.986Z,734.28
2016-12-12T08:20:53.969Z,734.3
2016-12-12T08:21:53.947Z,734.31
2016-12-12T08:22:53.926Z,734.38
2016-12-12T08:23:53.898Z,734.35
2016-12-12T08:24:53.884Z,734.33
2016-12-12T08:25:53.861Z,734.31
2016-12-12T08:26:53.832Z,734.28
2016-12-12T08:27:53.818Z,734.36
2016-12-12T08:28:53.797Z,734.35
2016-12-12T08:29:53.767Z,734.39
2016-12-12T08:30:53.745Z,734.42
2016-12-12T08:31:53.724Z,734.41
2016-12-12T08:32:53.709Z,734.42
2016-12-12T08:33:53.686Z,734.42
2016-12-12T08:34:53.666Z,734.42
2016-12-12T08:35:53.637Z,734.44
2016-12-12T08:36:53.622Z,734.45
2016-12-12T08:37:53.600Z,734.46
2016-12-12T08:38:53.582Z,734.55
2016-12-12T08:39:53.557Z,734.48
2016-12-12T08:40:53.534Z,734.45
2016-12-12T08:41:53.511Z,734.5
2016-12-12T08:42:53.482Z,734.53
2016-12-12T08:43:53.467Z,734.56
2016-12-12T08:44:53.438Z,734.59
2016-12-12T08:45:53.416Z,734.65
2016-12-12T08:46:53.401Z,734.62
2016-12-12T08:47:53.371Z,734.58
2016-12-12T08:48:53.355Z,734.61
2016-12-12T08:49:53.335Z,734.59
2016-12-12T08:50:53.305Z,734.59
2016-12-12T08:51:53.283Z,734.65
2016-12-12T08:52:53.261Z,734.63
2016-12-12T08:53:53.247Z,734.68
2016-12-12T08:54:53.224Z,734.65
2016-12-12T08:55:53.202Z,734.69
2016-12-12T08:56:53.174Z,734.69
2016-12-12T08:57:53.153Z,734.68
2016-12-12T08:58:53.137Z,734.73
2016-12-12T08:59:53.116Z,734.7
2016-12-12T09:00:53.095Z,734.73
2016-12-12T09:01:53.066Z,734.75
2016-12-12T09:02:53.043Z,734.71
2016-12-12T09:03:53.028Z,734.71
2016-12-12T09:04:53.009Z,734.77
2016-12-12T09:05:52.979Z,734.77
2016-12-12T09:06:52.958Z,734.72
2016-12-12T09:07:52.944Z,734.78
2016-12-12T09:08:52.923Z,734.78
2016-12-12T09:09:52.900Z,734.83
2016-12-12T09:10:52.872Z,734.78
2016-12-12T09:11:52.851Z,734.76
2016-12-12T09:12:52.830Z,734.75
2016-12-12T09:13:52.809Z,734.75
2016-12-12T09:14:52.795Z,734.74
2016-12-12T09:15:52.774Z,734.7
2016-12-12T09:16:52.751Z,734.69
2016-12-12T09:17:52.732Z,734.71
2016-12-12T09:18:52.703Z,734.7
2016-12-12T09:19:52.682Z,734.63
2016-12-12T09:20:52.667Z,734.72
2016-12-12T09:21:52.645Z,734.71
2016-12-12T09:22:52.625Z,734.71
2016-12-12T09:23:52.604Z,734.75
2016-12-12T09:24:52.575Z,734.76
2016-12-12T09:25:52.560Z,734.79
2016-12-12T09:26:52.532Z,734.81
2016-12-12T09:27:52.518Z,734.76
2016-12-12T09:28:52.496Z,734.79
2016-12-12T09:29:52.469Z,734.79
2016-12-12T09:30:52.448Z,734.79
2016-12-12T09:31:52.433Z,734.81
2016-12-12T09:32:52.413Z,734.79
2016-12-12T09:33:52.392Z,734.79
2016-12-12T09:34:52.370Z,734.83
2016-12-12T09:35:52.344Z,734.84
2016-12-12T09:36:52.323Z,734.77
2016-12-12T09:37:52.310Z,734.87
2016-12-12T09:38:52.281Z,734.81
2016-12-12T09:39:52.268Z,734.79
2016-12-12T09:40:52.247Z,734.86
2016-12-12T09:41:52.227Z,734.88
2016-12-12T09:42:52.205Z,734.83
2016-12-12T09:43:52.188Z,734.85
2016-12-12T09:44:52.164Z,734.9
2016-12-12T09:45:52.143Z,734.84
2016-12-12T09:46:52.115Z,734.85
2016-12-12T09:47:52.102Z,734.86
2016-12-12T09:48:52.084Z,734.85
2016-12-12T09:49:52.059Z,734.86
2016-12-12T09:50:52.038Z,734.84
2016-12-12T09:51:52.012Z,734.84
2016-12-12T09:52:51.991Z,734.8
2016-12-12T09:53:51.970Z,734.83
2016-12-12T09:54:51.957Z,734.82
2016-12-12T09:55:51.929Z,734.78
2016-12-12T09:56:51.915Z,734.78
2016-12-12T09:57:51.888Z,734.81
2016-12-12T09:58:51.868Z,734.82
2016-12-12T09:59:51.855Z,734.84
2016-12-12T10:00:51.827Z,734.88
2016-12-12T10:01:51.814Z,734.79
2016-12-12T10:02:51.789Z,734.83
2016-12-12T10:03:51.770Z,734.79
2016-12-12T10:04:51.755Z,734.83
2016-12-12T10:05:51.730Z,734.76
2016-12-12T10:06:51.711Z,734.76
2016-12-12T10:07:51.698Z,734.77
2016-12-12T10:08:51.679Z,734.76
2016-12-12T10:09:51.660Z,734.77
2016-12-12T10:10:51.834Z,734.74
2016-12-12T10:11:51.614Z,734.71
2016-12-12T10:12:51.596Z,734.72
2016-12-12T10:13:51.576Z,734.71
2016-12-12T10:14:51.564Z,734.7
2016-12-12T10:15:51.537Z,734.73
2016-12-12T10:16:51.518Z,734.72
2016-12-12T10:17:51.499Z,734.73
2016-12-12T10:18:51.479Z,734.76
2016-12-12T10:19:51.459Z,734.76
2016-12-12T10:20:51.439Z,734.79
2016-12-12T10:21:51.422Z,734.84
2016-12-12T10:22:51.400Z,734.87
2016-12-12T10:23:51.380Z,734.78
2016-12-12T10:24:51.360Z,734.81
2016-12-12T10:25:51.347Z,734.83
2016-12-12T10:26:51.329Z,734.86
2016-12-12T10:27:51.308Z,734.86
2016-12-12T10:28:51.281Z,734.88
2016-12-12T10:29:51.260Z,734.87
2016-12-12T10:30:51.240Z,734.88
2016-12-12T10:31:51.228Z,734.88
2016-12-12T10:32:51.208Z,734.89
2016-12-12T10:33:51.186Z,734.87
2016-12-12T10:34:51.167Z,734.84
2016-12-12T10:35:51.140Z,734.82
2016-12-12T10:36:51.127Z,734.85
2016-12-12T10:37:51.105Z,734.86
2016-12-12T10:38:51.079Z,734.79
2016-12-12T10:39:51.068Z,734.82
2016-12-12T10:40:51.046Z,734.79
2016-12-12T10:41:51.020Z,734.81
2016-12-12T10:42:51.001Z,734.88
2016-12-12T10:43:50.981Z,734.82
2016-12-12T10:44:50.961Z,734.86
2016-12-12T10:45:50.941Z,734.88
2016-12-12T10:46:50.928Z,734.89
2016-12-12T10:47:50.909Z,734.93
2016-12-12T10:48:50.882Z,734.93
2016-12-12T10:49:50.862Z,734.93
2016-12-12T10:50:50.843Z,734.96
2016-12-12T10:51:50.821Z,734.97
2016-12-12T10:52:50.809Z,734.95
2016-12-12T10:53:50.783Z,734.96
2016-12-12T10:54:50.763Z,735.02
2016-12-12T10:55:50.748Z,734.99
2016-12-12T10:56:50.730Z,735.02
2016-12-12T10:57:50.703Z,735.02
2016-12-12T10:58:50.689Z,735.03
2016-12-12T10:59:50.664Z,734.96
2016-12-12T11:00:50.643Z,735.02
2016-12-12T11:01:50.623Z,734.97
2016-12-12T11:02:50.603Z,734.98
2016-12-12T11:03:50.590Z,735
2016-12-12T11:04:50.570Z,734.98
2016-12-12T11:05:50.545Z,735
2016-12-12T11:06:50.523Z,734.94
2016-12-12T11:07:50.503Z,734.96
2016-12-12T11:08:50.484Z,735.01
2016-12-12T11:09:50.464Z,735.02
2016-12-12T11:10:50.444Z,735.03
2016-12-12T11:11:50.424Z,735.01
2016-12-12T11:12:50.411Z,735
2016-12-12T11:13:50.390Z,735
2016-12-12T11:14:50.370Z,735.09
2016-12-12T11:15:50.343Z,735.07
2016-12-12T11:16:50.323Z,735.11
2016-12-12T11:17:50.307Z,735.12
2016-12-12T11:18:50.288Z,735.11
2016-12-12T11:19:50.267Z,735.1
2016-12-12T11:20:50.247Z,735.17
2016-12-12T11:21:50.220Z,735.16
2016-12-12T11:22:50.206Z,735.14
2016-12-12T11:23:50.180Z,735.14
2016-12-12T11:24:50.166Z,735.14
2016-12-12T11:25:50.139Z,735.23
2016-12-12T11:26:50.125Z,735.15
2016-12-12T11:27:50.099Z,735.14
2016-12-12T11:28:50.085Z,735.07
2016-12-12T11:29:50.058Z,735.1
2016-12-12T11:30:50.038Z,735.13
2016-12-12T11:31:50.017Z,735.08
2016-12-12T11:32:49.997Z,735.13
2016-12-12T11:33:49.984Z,735.1
2016-12-12T11:34:49.963Z,735.1
2016-12-12T11:35:49.935Z,735.2
2016-12-12T11:36:49.915Z,735.2
2016-12-12T11:37:49.895Z,735.19
2016-12-12T11:38:49.881Z,735.18
2016-12-12T11:39:49.860Z,735.23
2016-12-12T11:40:49.834Z,735.19
2016-12-12T11:41:49.813Z,735.16
2016-12-12T11:42:49.797Z,735.15
2016-12-12T11:43:49.771Z,735.13
2016-12-12T11:44:49.758Z,735.18
2016-12-12T11:45:49.731Z,735.16
2016-12-12T11:46:49.717Z,735.08
2016-12-12T11:47:49.689Z,735.07
2016-12-12T11:48:49.669Z,735.07
2016-12-12T11:49:49.656Z,735.1
2016-12-12T11:50:49.627Z,735.06
2016-12-12T11:51:49.607Z,735.1
2016-12-12T11:52:49.594Z,735.09
2016-12-12T11:53:49.572Z,735.04
2016-12-12T11:54:49.551Z,735.13
2016-12-12T11:55:49.531Z,735.11
2016-12-12T11:56:49.511Z,735.09
2016-12-12T11:57:49.482Z,735.07
2016-12-12T11:58:49.468Z,735.12
2016-12-12T11:59:49.441Z,735.09
2016-12-12T12:00:49.421Z,735.12
2016-12-12T12:01:49.400Z,735.15
2016-12-12T12:02:49.479Z,735.14
2016-12-12T12:03:49.359Z,735.14
2016-12-12T12:04:49.344Z,735.11
2016-12-12T12:05:49.325Z,735.14
2016-12-12T12:06:49.297Z,735.13
2016-12-12T12:07:49.283Z,735.12
2016-12-12T12:08:49.262Z,735.12
2016-12-12T12:09:49.235Z,735.15
2016-12-12T12:10:49.215Z,735.02
2016-12-12T12:11:49.202Z,735.16
2016-12-12T12:12:49.180Z,735.12
2016-12-12T12:13:49.154Z,735.16
2016-12-12T12:14:49.134Z,735.09
2016-12-12T12:15:49.120Z,735.05
2016-12-12T12:16:49.099Z,735.13
2016-12-12T12:17:49.080Z,735.17
2016-12-12T12:18:49.059Z,735.16
2016-12-12T12:19:49.037Z,735.2
2016-12-12T12:20:49.011Z,735.14
2016-12-12T12:21:48.997Z,735.16
2016-12-12T12:22:48.977Z,735.13
2016-12-12T12:23:48.956Z,735.15
2016-12-12T12:24:48.928Z,735.15
2016-12-12T12:25:48.908Z,735.22
2016-12-12T12:26:48.887Z,735.13
2016-12-12T12:27:48.867Z,735.15
2016-12-12T12:28:48.846Z,735.15
2016-12-12T12:29:48.834Z,735.15
2016-12-12T12:30:48.815Z,735.14